In Rescue
 
Open Full Screen Window  High Contrast Mode
Wind Gusting 18 knots
10
August 09, 2020 5:46 PM CDT
Weather Information
Wind Direction
  200 °
Wind Speed
  10 kt (12 mph)
Wind Gust
  18 kt (21 mph)
Altimeter
29.85 in
Visibility
10 SM
Temperature
28° C
82° F
Dewpoint
21° C
70° F
Humidity
66%
1hr Rain Fall
00.00 in.
24hr Rain Fall
00.09 in.
Sky Condition
Clear
VFR

METAR KTOB 092246Z AUTO 20010G18KT 10SM CLR 28/21 A2985 RMK AO2 PWINO

FAA Disclaimer: The data displayed is for advisory purposes only and is not to be used for flight planning or operations.